首页
METAR-TAF:

METAR-TAF

机场 :

Newport News/Williamsburg International Airport

紐波特紐斯, 弗吉尼亚州, 美国

纬度: 37-07-55N, 经度: 076-29-35W, 海拔: 13米

当前天气观测

该预报发布于27分钟前的09:16 UTC
风速4节,风向东转东北
温度 19°C
湿度 83%
气压 1021 hPa
能見度: 16.1公里
多云层高于800英尺
阴天层高于1200英尺

METAR: KPHF 260916Z AUTO 06004KT 10SM BKN008 OVC012 19/16 A3016 RMK AO2 CIG 006V011 T01890156

时间: 05:43 (09:43 UTC)

预报

该预报发布于38分钟前的09:05 UTC
预报有效从26日的 09点(UTC)到 27日的 06点(UTC)
风速4节,风向东转东北
能見度: 10公里
阴天层高于1000英尺
从 26日的 1000点(UTC)
风速4节,风向东转东北
能見度: 10公里
阴天层高于700英尺
从 26日的 1600点(UTC)
风速7节,风向东转东北
能見度: 10公里
阴天层高于1500英尺
从 26日的 1800点(UTC)
风速7节,风向
能見度: 10公里
多云层高于3000英尺
从 26日的 2000点(UTC)
风速7节,风向
能見度: 10公里
多云层高于4000英尺
从 27日的 0300点(UTC)
风速4节,风向
能見度: 10公里
多云层高于2500英尺

TAF: KPHF 260905Z 2609/2706 06004KT P6SM OVC010 FM261000 06004KT P6SM OVC007 FM261600 07007KT P6SM OVC015 FM261800 09007KT P6SM BKN030 FM262000 08007KT P6SM BKN040 FM270300 09004KT P6SM BKN025

超过4000个机场的气象观测和天气预报(METAR&TAF报告)。

可查询的气象台以黄色和红色小点在地图上表示。

将鼠标移到小点上方,可查看气象台名称。

然后点击查看天气观测和预报。

如需切换地图:点击带黑十字的绿色按钮放大地图;点击带横线的绿色按钮缩小地图;或者点击绿色箭头查看邻近地区的地图。


METAR-TAF: